This is the latest recevied weather packets stored in our database for station/object DL1GHN-6. If no packets are shown the sender has not sent any weather packets the latest 10 day(s).
| Time | Temp. | Humidity | Pressure | Rain* | Wind** | Luminosity | Snow |
|---|---|---|---|---|---|---|---|
| 1777679425 | 16.11° C | 46% | 1022.2 hPa | 0 mm | - | 0 W/m² | - |
| 1777679125 | 17.22° C | 42% | 1022.2 hPa | 0 mm | - | 0 W/m² | - |
| 1777678824 | 17.78° C | 38% | 1022.2 hPa | 0 mm | - | 0 W/m² | - |
| 1777678525 | 17.78° C | 39% | 1022.1 hPa | 0 mm | - | 0 W/m² | - |
| 1777678225 | 17.22° C | 39% | 1022.1 hPa | 0 mm | - | 0 W/m² | - |
| 1777677924 | 17.22° C | 39% | 1022.1 hPa | 0 mm | - | 0 W/m² | - |
| 1777677624 | 17.22° C | 39% | 1022.1 hPa | 0 mm | - | 0 W/m² | - |
| 1777677325 | 17.22° C | 39% | 1022.1 hPa | 0 mm | - | 0 W/m² | - |
| 1777677025 | 17.22° C | 40% | 1022.1 hPa | 0 mm | - | 0 W/m² | - |
| 1777676725 | 17.22° C | 40% | 1022.1 hPa | 0 mm | - | 0 W/m² | - |
| 1777676425 | 17.22° C | 41% | 1022.1 hPa | 0 mm | - | 0 W/m² | - |
| 1777676125 | 16.67° C | 41% | 1022.1 hPa | 0 mm | - | 0 W/m² | - |
| 1777675824 | 15.56° C | 44% | 1022.1 hPa | 0 mm | - | 0 W/m² | - |
| 1777675523 | 15° C | 47% | 1022.2 hPa | 0 mm | - | 0 W/m² | - |
| 1777675225 | 13.89° C | 51% | 1022.2 hPa | 0 mm | - | 0 W/m² | - |
| 1777674924 | 12.22° C | 57% | 1022.1 hPa | 0 mm | - | 0 W/m² | - |
| 1777674625 | 10.56° C | 65% | 1022.2 hPa | 0 mm | - | 0 W/m² | - |
| 1777674326 | 9.44° C | 72% | 1022.3 hPa | 0 mm | - | 0 W/m² | - |
| 1777674025 | 9.44° C | 72% | 1022.3 hPa | 0 mm | - | 0 W/m² | - |
| 1777673724 | 9.44° C | 72% | 1022.4 hPa | 0 mm | - | 0 W/m² | - |
| 1777673424 | 9.44° C | 72% | 1022.4 hPa | 0 mm | - | 0 W/m² | - |
| 1777673123 | 9.44° C | 72% | 1022.4 hPa | 0 mm | - | 0 W/m² | - |
| 1777672825 | 9.44° C | 72% | 1022.4 hPa | 0 mm | - | 0 W/m² | - |
| 1777672524 | 10° C | 72% | 1022.4 hPa | 0 mm | - | 0 W/m² | - |
| 1777672224 | 10° C | 71% | 1022.4 hPa | 0 mm | - | 0 W/m² | - |
* Rain latest hour (hover to see other rain measurements)
** Current wind speed in m/s (hover to see current wind gust speed)